Fair Oaks, Texas
Current Conditions -  °F | °C
As of 11:35 AM on Monday 22 Dec 2014 (Local Time) from K5C1 Reporting Station
Clear Clear  
Wind Chill: 63°   Ceiling: Unl
Heat Index: 63°   Visibility: 10mi
Dew Point: 52°   Wind: 6mph
Humidity: 68%   Direction: 210°SSW
Pressure: 29.75"   Gusts: NA
Location:  29.7214°N, 98.6455°W
Report Text: K5C1 221735Z AUTO 21005KT 10SM CLR 17/11 A2975 RMK AO1
Loading
Personal Weather Stations






























Interactive Weather Map New forecast layout! Learn more

10-Day Weather Forecast

Advertisements
Track Severe Weather on mobile